Thargomindah, Australia
Current Conditions -  °F | °C
As of 10:00 PM on Thursday 23 Oct 2014 (Local Time) from YBCV Reporting Station
Clear Clear  
Wind Chill: 77°   Ceiling: Unl
Heat Index: 78°   Visibility: 6mi
Dew Point: 48°   Wind: 5mph
Humidity: 36%   Direction: 30°NNE
Pressure: 30.06"   Gusts: NA
Location:  28°S, 143.82°E
Report Text: YBCV 231200Z AUTO 03004KT 9999 // NCD 25/09 Q1018
Loading
Personal Weather Stations






























Interactive Weather Map
Tropical Storm Tracking
New forecast layout! Learn more

10-Day Weather Forecast

Advertisements
Track Severe Weather on mobile